createdAt,value
2022-08-11T00:00:53.296Z,14.98
2022-08-11T00:01:53.281Z,14.99
2022-08-11T00:02:53.291Z,14.98
2022-08-11T00:03:53.262Z,14.87
2022-08-11T00:04:53.268Z,14.99
2022-08-11T00:05:53.267Z,14.88
2022-08-11T00:06:53.237Z,14.88
2022-08-11T00:07:53.223Z,14.75
2022-08-11T00:08:53.266Z,14.81
2022-08-11T00:09:53.247Z,14.69
2022-08-11T00:10:53.199Z,14.61
2022-08-11T00:11:53.190Z,14.64
2022-08-11T00:12:54.178Z,14.56
2022-08-11T00:13:53.169Z,14.49
2022-08-11T00:14:53.176Z,14.46
2022-08-11T00:15:53.148Z,14.44
2022-08-11T00:16:53.137Z,14.39
2022-08-11T00:17:53.130Z,14.46
2022-08-11T00:18:53.123Z,14.49
2022-08-11T00:20:12.402Z,14.52
2022-08-11T00:20:54.104Z,14.49
2022-08-11T00:22:04.912Z,14.54
2022-08-11T00:22:54.086Z,14.53
2022-08-11T00:23:53.073Z,14.49
2022-08-11T00:24:57.225Z,14.47
2022-08-11T00:25:54.051Z,14.50
2022-08-11T00:26:53.043Z,14.53
2022-08-11T00:27:53.031Z,14.52
2022-08-11T00:28:53.020Z,14.54
2022-08-11T00:29:53.028Z,14.53
2022-08-11T00:30:53.010Z,14.56
2022-08-11T00:31:52.991Z,14.56
2022-08-11T00:32:52.991Z,14.61
2022-08-11T00:33:52.973Z,14.54
2022-08-11T00:34:52.984Z,14.57
2022-08-11T00:35:57.669Z,14.62
2022-08-11T00:36:52.949Z,14.68
2022-08-11T00:37:52.935Z,14.65
2022-08-11T00:38:52.947Z,14.69
2022-08-11T00:39:53.034Z,14.68
2022-08-11T00:40:52.927Z,14.54
2022-08-11T00:41:56.776Z,14.57
2022-08-11T00:42:52.887Z,14.52
2022-08-11T00:43:52.879Z,14.53
2022-08-11T00:44:52.867Z,14.39
2022-08-11T00:45:52.901Z,14.31
2022-08-11T00:46:52.857Z,14.29
2022-08-11T00:47:52.842Z,14.29
2022-08-11T00:48:52.835Z,14.24
2022-08-11T00:49:52.822Z,14.21
2022-08-11T00:50:52.831Z,14.16
2022-08-11T00:52:02.029Z,14.09
2022-08-11T00:52:53.797Z,14.13
2022-08-11T00:53:52.785Z,14.06
2022-08-11T00:54:52.775Z,14.25
2022-08-11T00:55:55.469Z,14.17
2022-08-11T00:56:52.761Z,14.13
2022-08-11T00:57:52.745Z,14.07
2022-08-11T00:58:52.741Z,13.95
2022-08-11T00:59:52.725Z,13.99
2022-08-11T01:00:52.759Z,13.96
2022-08-11T01:01:52.702Z,13.98
2022-08-11T01:02:52.701Z,14.04
2022-08-11T01:03:52.688Z,13.98
2022-08-11T01:04:55.745Z,14.04
2022-08-11T01:05:52.681Z,13.95
2022-08-11T01:06:52.662Z,14.02
2022-08-11T01:08:02.388Z,14.09
2022-08-11T01:08:53.689Z,14.09
2022-08-11T01:09:52.628Z,14.04
2022-08-11T01:10:52.688Z,14.07
2022-08-11T01:11:55.727Z,14.12
2022-08-11T01:12:52.603Z,14.12
2022-08-11T01:13:52.594Z,14.09
2022-08-11T01:14:52.588Z,14.06
2022-08-11T01:15:57.019Z,14.13
2022-08-11T01:16:52.632Z,14.12
2022-08-11T01:17:52.555Z,14.10
2022-08-11T01:18:52.544Z,14.14
2022-08-11T01:20:44.724Z,14.20
2022-08-11T01:20:53.546Z,14.12
2022-08-11T01:21:52.522Z,14.02
2022-08-11T01:22:52.566Z,14.09
2022-08-11T01:23:52.503Z,14.06
2022-08-11T01:24:52.485Z,14.09
2022-08-11T01:25:57.061Z,14.17
2022-08-11T01:26:53.470Z,14.06
2022-08-11T01:27:52.463Z,13.96
2022-08-11T01:28:52.539Z,14.06
2022-08-11T01:29:52.436Z,13.95
2022-08-11T01:30:54.293Z,13.91
2022-08-11T01:31:52.425Z,13.76
2022-08-11T01:32:52.410Z,13.63
2022-08-11T01:33:52.404Z,13.58
2022-08-11T01:34:52.387Z,13.63
2022-08-11T01:35:52.597Z,13.51
2022-08-11T01:36:53.585Z,13.54
2022-08-11T01:37:52.358Z,13.49
2022-08-11T01:38:52.346Z,13.40
2022-08-11T01:39:52.424Z,13.40
2022-08-11T01:40:52.346Z,13.37
2022-08-11T01:41:52.324Z,13.33
2022-08-11T01:42:52.312Z,13.36
2022-08-11T01:43:52.297Z,13.33
2022-08-11T01:44:52.294Z,13.25
2022-08-11T01:45:52.379Z,13.38
2022-08-11T01:46:52.444Z,13.30
2022-08-11T01:47:53.521Z,13.44
2022-08-11T01:48:52.252Z,13.36
2022-08-11T01:50:09.438Z,13.41
2022-08-11T01:50:53.248Z,13.46
2022-08-11T01:51:52.225Z,13.44
2022-08-11T01:52:52.386Z,13.40
2022-08-11T01:53:52.199Z,13.49
2022-08-11T01:54:52.191Z,13.51
2022-08-11T01:55:52.238Z,13.47
2022-08-11T01:56:52.167Z,13.54
2022-08-11T01:57:52.165Z,13.54
2022-08-11T01:58:52.156Z,13.51
2022-08-11T01:59:52.147Z,13.63
2022-08-11T02:00:52.192Z,13.65
2022-08-11T02:01:52.223Z,13.65
2022-08-11T02:02:52.113Z,13.67
2022-08-11T02:03:52.107Z,13.59
2022-08-11T02:04:52.094Z,13.55
2022-08-11T02:05:52.083Z,13.61
2022-08-11T02:06:52.090Z,13.56
2022-08-11T02:07:52.069Z,13.56
2022-08-11T02:08:52.054Z,13.59
2022-08-11T02:09:52.045Z,13.56
2022-08-11T02:10:52.035Z,13.52
2022-08-11T02:11:52.042Z,13.47
2022-08-11T02:12:52.412Z,13.40
2022-08-11T02:13:52.007Z,13.47
2022-08-11T02:15:04.779Z,13.47
2022-08-11T02:15:52.993Z,13.41
2022-08-11T02:16:51.999Z,13.22
2022-08-11T02:17:54.703Z,13.27
2022-08-11T02:18:51.963Z,13.15
2022-08-11T02:19:51.958Z,13.06
2022-08-11T02:20:51.951Z,13.00
2022-08-11T02:21:51.946Z,12.99
2022-08-11T02:22:51.944Z,12.97
2022-08-11T02:24:07.106Z,13.09
2022-08-11T02:24:52.900Z,13.07
2022-08-11T02:25:51.980Z,13.12
2022-08-11T02:26:51.901Z,13.06
2022-08-11T02:27:51.878Z,13.07
2022-08-11T02:28:51.862Z,12.99
2022-08-11T02:29:51.862Z,12.87
2022-08-11T02:30:51.862Z,12.92
2022-08-11T02:32:24.373Z,12.92
2022-08-11T02:32:53.030Z,12.92
2022-08-11T02:33:51.821Z,12.99
2022-08-11T02:34:59.411Z,12.97
2022-08-11T02:35:51.806Z,12.87
2022-08-11T02:36:52.045Z,12.95
2022-08-11T02:37:51.823Z,12.97
2022-08-11T02:38:52.007Z,13.04
2022-08-11T02:39:51.814Z,12.93
2022-08-11T02:40:51.756Z,13.06
2022-08-11T02:41:51.762Z,13.09
2022-08-11T02:42:51.731Z,12.95
2022-08-11T02:43:51.856Z,12.99
2022-08-11T02:44:51.711Z,13.06
2022-08-11T02:45:51.723Z,13.09
2022-08-11T02:46:51.704Z,13.06
2022-08-11T02:47:51.687Z,13.22
2022-08-11T02:48:51.679Z,13.22
2022-08-11T02:50:02.721Z,13.27
2022-08-11T02:50:52.653Z,13.25
2022-08-11T02:51:51.702Z,13.33
2022-08-11T02:52:51.637Z,13.25
2022-08-11T02:53:57.995Z,13.33
2022-08-11T02:54:52.618Z,13.33
2022-08-11T02:55:57.983Z,13.33
2022-08-11T02:56:52.636Z,13.32
2022-08-11T02:57:51.594Z,13.32
2022-08-11T02:58:51.582Z,13.30
2022-08-11T02:59:51.593Z,13.25
2022-08-11T03:00:51.590Z,13.25
2022-08-11T03:01:51.623Z,13.21
2022-08-11T03:02:51.578Z,13.30
2022-08-11T03:03:51.545Z,13.27
2022-08-11T03:04:51.533Z,13.24
2022-08-11T03:05:52.908Z,13.27
2022-08-11T03:06:51.522Z,13.32
2022-08-11T03:07:51.509Z,13.37
2022-08-11T03:08:51.500Z,13.36
2022-08-11T03:09:51.485Z,13.32
2022-08-11T03:10:51.465Z,13.41
2022-08-11T03:11:51.479Z,13.29
2022-08-11T03:12:53.666Z,13.32
2022-08-11T03:13:51.451Z,13.33
2022-08-11T03:14:51.426Z,13.32
2022-08-11T03:15:51.435Z,13.27
2022-08-11T03:16:51.475Z,13.38
2022-08-11T03:17:51.400Z,13.38
2022-08-11T03:18:51.399Z,13.29
2022-08-11T03:19:51.582Z,13.21
2022-08-11T03:20:51.372Z,13.29
2022-08-11T03:22:03.060Z,13.29
2022-08-11T03:22:52.353Z,13.21
2022-08-11T03:23:51.347Z,13.07
2022-08-11T03:24:51.337Z,13.17
2022-08-11T03:25:51.324Z,13.18
2022-08-11T03:26:51.325Z,13.22
2022-08-11T03:27:51.303Z,13.21
2022-08-11T03:28:51.292Z,13.14
2022-08-11T03:29:51.284Z,13.12
2022-08-11T03:30:51.282Z,13.17
2022-08-11T03:31:51.285Z,13.20
2022-08-11T03:32:51.252Z,13.12
2022-08-11T03:33:51.247Z,13.17
2022-08-11T03:34:51.233Z,13.06
2022-08-11T03:35:51.227Z,13.04
2022-08-11T03:37:15.067Z,13.09
2022-08-11T03:37:52.482Z,13.09
2022-08-11T03:38:51.271Z,13.14
2022-08-11T03:39:56.160Z,13.11
2022-08-11T03:40:52.178Z,12.93
2022-08-11T03:42:04.489Z,12.82
2022-08-11T03:42:52.157Z,12.84
2022-08-11T03:43:58.415Z,12.78
2022-08-11T03:44:51.354Z,12.92
2022-08-11T03:45:51.134Z,12.81
2022-08-11T03:46:51.139Z,12.77
2022-08-11T03:47:54.958Z,12.88
2022-08-11T03:48:51.115Z,12.88
2022-08-11T03:49:51.095Z,12.89
2022-08-11T03:50:54.958Z,12.81
2022-08-11T03:51:52.187Z,12.81
2022-08-11T03:52:51.247Z,12.92
2022-08-11T03:53:51.052Z,12.84
2022-08-11T03:54:51.046Z,12.78
2022-08-11T03:55:51.039Z,12.77
2022-08-11T03:56:51.034Z,12.77
2022-08-11T03:57:51.017Z,12.77
2022-08-11T03:58:51.113Z,12.92
2022-08-11T03:59:50.996Z,12.77
2022-08-11T04:00:50.987Z,12.75
2022-08-11T04:01:51.039Z,12.75
2022-08-11T04:02:50.969Z,12.87
2022-08-11T04:03:50.961Z,12.84
2022-08-11T04:04:51.641Z,12.74
2022-08-11T04:05:51.021Z,12.69
2022-08-11T04:06:50.940Z,12.82
2022-08-11T04:07:50.920Z,12.87
2022-08-11T04:08:50.910Z,12.88
2022-08-11T04:09:50.899Z,12.93
2022-08-11T04:10:50.890Z,12.95
2022-08-11T04:11:50.896Z,12.85
2022-08-11T04:12:51.018Z,12.85
2022-08-11T04:13:50.867Z,12.88
2022-08-11T04:14:50.850Z,12.89
2022-08-11T04:15:51.059Z,12.85
2022-08-11T04:16:50.836Z,12.85
2022-08-11T04:17:50.837Z,12.79
2022-08-11T04:18:50.816Z,12.81
2022-08-11T04:19:50.803Z,12.71
2022-08-11T04:20:50.792Z,12.75
2022-08-11T04:21:50.781Z,12.81
2022-08-11T04:22:50.781Z,12.84
2022-08-11T04:24:35.010Z,12.82
2022-08-11T04:24:51.776Z,12.77
2022-08-11T04:25:55.854Z,12.79
2022-08-11T04:26:51.729Z,12.71
2022-08-11T04:27:50.861Z,12.70
2022-08-11T04:28:50.897Z,12.70
2022-08-11T04:30:02.101Z,12.69
2022-08-11T04:30:51.896Z,12.57
2022-08-11T04:31:52.738Z,12.38
2022-08-11T04:32:50.680Z,12.26
2022-08-11T04:33:52.064Z,12.24
2022-08-11T04:34:50.658Z,12.27
2022-08-11T04:35:51.418Z,12.31
2022-08-11T04:36:50.635Z,12.33
2022-08-11T04:37:51.351Z,12.41
2022-08-11T04:38:50.623Z,12.44
2022-08-11T04:39:50.705Z,12.31
2022-08-11T04:40:50.600Z,12.44
2022-08-11T04:41:50.594Z,12.45
2022-08-11T04:42:50.596Z,12.51
2022-08-11T04:44:02.887Z,12.63
2022-08-11T04:44:51.570Z,12.62
2022-08-11T04:45:50.551Z,12.64
2022-08-11T04:46:50.537Z,12.70
2022-08-11T04:48:03.536Z,12.64
2022-08-11T04:48:51.523Z,12.67
2022-08-11T04:49:50.530Z,12.62
2022-08-11T04:51:08.591Z,12.60
2022-08-11T04:51:51.552Z,12.64
2022-08-11T04:52:50.571Z,12.63
2022-08-11T04:53:52.265Z,12.67
2022-08-11T04:54:50.809Z,12.69
2022-08-11T04:55:50.465Z,12.66
2022-08-11T04:56:50.597Z,12.70
2022-08-11T04:57:50.450Z,12.66
2022-08-11T04:58:50.423Z,12.70
2022-08-11T04:59:50.423Z,12.75
2022-08-11T05:00:50.425Z,12.77
2022-08-11T05:01:50.464Z,12.79
2022-08-11T05:02:50.430Z,12.77
2022-08-11T05:03:50.399Z,12.75
2022-08-11T05:04:50.368Z,12.78
2022-08-11T05:05:56.496Z,12.87
2022-08-11T05:06:51.353Z,12.87
2022-08-11T05:07:50.374Z,12.88
2022-08-11T05:08:50.333Z,12.95
2022-08-11T05:09:50.328Z,12.97
2022-08-11T05:10:50.311Z,12.93
2022-08-11T05:11:50.321Z,13.09
2022-08-11T05:12:50.309Z,12.93
2022-08-11T05:13:50.287Z,12.85
2022-08-11T05:14:50.274Z,12.84
2022-08-11T05:15:51.597Z,12.85
2022-08-11T05:16:50.265Z,12.89
2022-08-11T05:17:50.251Z,12.93
2022-08-11T05:18:50.238Z,12.88
2022-08-11T05:19:50.228Z,12.95
2022-08-11T05:20:50.218Z,12.92
2022-08-11T05:21:50.226Z,12.96
2022-08-11T05:22:50.197Z,13.11
2022-08-11T05:23:50.196Z,13.14
2022-08-11T05:24:50.179Z,13.18
2022-08-11T05:26:43.342Z,13.15
2022-08-11T05:26:51.176Z,13.20
2022-08-11T05:27:50.152Z,13.27
2022-08-11T05:28:50.137Z,13.22
2022-08-11T05:29:50.132Z,13.30
2022-08-11T05:30:50.116Z,13.40
2022-08-11T05:31:50.132Z,13.43
2022-08-11T05:32:50.093Z,13.47
2022-08-11T05:33:50.090Z,13.49
2022-08-11T05:34:50.081Z,13.38
2022-08-11T05:36:00.825Z,13.41
2022-08-11T05:36:51.083Z,13.44
2022-08-11T05:37:50.046Z,13.51
2022-08-11T05:38:50.047Z,13.52
2022-08-11T05:39:50.100Z,13.55
2022-08-11T05:40:51.126Z,13.51
2022-08-11T05:41:50.034Z,13.55
2022-08-11T05:42:50.005Z,13.58
2022-08-11T05:44:20.605Z,13.71
2022-08-11T05:44:50.993Z,13.74
2022-08-11T05:46:02.772Z,13.79
2022-08-11T05:46:50.980Z,13.83
2022-08-11T05:47:49.958Z,13.92
2022-08-11T05:48:49.974Z,13.96
2022-08-11T05:49:49.939Z,13.99
2022-08-11T05:50:49.928Z,14.02
2022-08-11T05:51:55.111Z,14.10
2022-08-11T05:52:55.453Z,14.10
2022-08-11T05:53:50.058Z,14.24
2022-08-11T05:54:49.889Z,14.20
2022-08-11T05:56:01.649Z,14.21
2022-08-11T05:56:50.887Z,14.25
2022-08-11T05:57:51.900Z,14.44
2022-08-11T05:58:49.845Z,14.46
2022-08-11T05:59:49.843Z,14.49
2022-08-11T06:00:49.843Z,14.56
2022-08-11T06:01:49.882Z,14.69
2022-08-11T06:02:49.824Z,14.72
2022-08-11T06:03:58.665Z,14.86
2022-08-11T06:04:50.812Z,14.81
2022-08-11T06:05:50.823Z,15.01
2022-08-11T06:06:49.770Z,15.05
2022-08-11T06:07:50.305Z,15.08
2022-08-11T06:08:49.758Z,15.26
2022-08-11T06:09:49.743Z,15.35
2022-08-11T06:10:49.739Z,15.33
2022-08-11T06:11:49.727Z,15.43
2022-08-11T06:12:49.732Z,15.51
2022-08-11T06:13:49.715Z,15.60
2022-08-11T06:14:49.710Z,15.60
2022-08-11T06:15:49.693Z,15.66
2022-08-11T06:16:49.879Z,15.76
2022-08-11T06:17:49.682Z,15.86
2022-08-11T06:18:49.670Z,15.94
2022-08-11T06:19:49.657Z,16.00
2022-08-11T06:20:49.658Z,16.16
2022-08-11T06:21:49.636Z,16.26
2022-08-11T06:22:52.933Z,16.23
2022-08-11T06:23:49.608Z,16.40
2022-08-11T06:24:49.610Z,16.38
2022-08-11T06:25:49.599Z,16.59
2022-08-11T06:27:11.331Z,16.65
2022-08-11T06:27:50.588Z,16.70
2022-08-11T06:28:49.656Z,16.85
2022-08-11T06:29:55.134Z,16.86
2022-08-11T06:30:50.550Z,16.98
2022-08-11T06:31:49.534Z,16.92
2022-08-11T06:32:49.534Z,17.00
2022-08-11T06:33:49.511Z,17.03
2022-08-11T06:34:49.508Z,17.13
2022-08-11T06:35:49.499Z,17.22
2022-08-11T06:36:49.486Z,17.25
2022-08-11T06:37:49.506Z,17.25
2022-08-11T06:38:49.472Z,17.28
2022-08-11T06:39:49.505Z,17.33
2022-08-11T06:40:49.445Z,17.41
2022-08-11T06:41:49.436Z,17.51
2022-08-11T06:42:49.436Z,17.55
2022-08-11T06:43:55.941Z,17.63
2022-08-11T06:44:50.403Z,17.81
2022-08-11T06:45:49.392Z,17.92
2022-08-11T06:46:49.386Z,17.88
2022-08-11T06:47:49.404Z,17.97
2022-08-11T06:48:49.380Z,18.02
2022-08-11T06:49:49.361Z,18.06
2022-08-11T06:50:49.348Z,18.15
2022-08-11T06:51:49.335Z,18.17
2022-08-11T06:52:49.626Z,18.18
2022-08-11T06:53:49.496Z,18.24
2022-08-11T06:54:50.307Z,18.36
2022-08-11T06:55:57.917Z,18.47
2022-08-11T06:57:01.723Z,18.47
2022-08-11T06:57:50.278Z,18.47
2022-08-11T06:58:49.288Z,18.58
2022-08-11T06:59:49.253Z,18.61
2022-08-11T07:00:49.250Z,18.72
2022-08-11T07:01:49.583Z,18.76
2022-08-11T07:02:49.233Z,18.91
2022-08-11T07:03:49.237Z,18.97
2022-08-11T07:04:49.209Z,18.98
2022-08-11T07:05:49.202Z,19.29
2022-08-11T07:06:50.386Z,19.31
2022-08-11T07:07:49.181Z,19.40
2022-08-11T07:08:49.192Z,19.53
2022-08-11T07:09:49.160Z,19.60
2022-08-11T07:10:49.154Z,19.70
2022-08-11T07:11:49.143Z,19.84
2022-08-11T07:12:49.132Z,19.95
2022-08-11T07:13:49.136Z,20.05
2022-08-11T07:14:49.113Z,20.16
2022-08-11T07:16:12.205Z,20.24
2022-08-11T07:16:50.094Z,20.31
2022-08-11T07:17:49.076Z,20.46
2022-08-11T07:18:49.085Z,20.59
2022-08-11T07:19:49.061Z,20.65
2022-08-11T07:20:49.052Z,20.65
2022-08-11T07:22:02.346Z,20.76
2022-08-11T07:22:50.040Z,20.79
2022-08-11T07:23:49.040Z,20.76
2022-08-11T07:25:01.388Z,20.89
2022-08-11T07:25:50.010Z,21.01
2022-08-11T07:26:49.001Z,20.99
2022-08-11T07:27:48.989Z,21.06
2022-08-11T07:28:48.990Z,21.14
2022-08-11T07:29:48.969Z,21.24
2022-08-11T07:30:51.859Z,21.29
2022-08-11T07:31:50.011Z,21.44
2022-08-11T07:32:48.939Z,21.57
2022-08-11T07:34:08.408Z,21.76
2022-08-11T07:34:49.927Z,21.94
2022-08-11T07:35:48.946Z,22.20
2022-08-11T07:36:48.897Z,22.41
2022-08-11T07:37:48.881Z,22.86
2022-08-11T07:38:49.058Z,23.22
2022-08-11T07:39:48.925Z,23.49
2022-08-11T07:40:48.864Z,24.07
2022-08-11T07:41:48.841Z,24.35
2022-08-11T07:42:48.841Z,24.79
2022-08-11T07:43:48.820Z,25.19
2022-08-11T07:44:48.830Z,25.67
2022-08-11T07:45:48.805Z,25.97
2022-08-11T07:46:48.792Z,26.28
2022-08-11T07:47:48.778Z,26.59
2022-08-11T07:48:48.787Z,26.84
2022-08-11T07:49:48.779Z,26.98
2022-08-11T07:50:51.811Z,26.95
2022-08-11T07:51:48.747Z,26.94
2022-08-11T07:52:52.799Z,26.86
2022-08-11T07:53:58.781Z,26.79
2022-08-11T07:54:51.296Z,26.65
2022-08-11T07:55:50.839Z,26.61
2022-08-11T07:57:07.518Z,26.58
2022-08-11T07:58:16.164Z,26.44
2022-08-11T07:58:53.225Z,26.39
2022-08-11T07:59:57.578Z,26.47
2022-08-11T08:00:51.788Z,26.44
2022-08-11T08:01:48.673Z,26.42
2022-08-11T08:02:48.643Z,26.50
2022-08-11T08:03:54.504Z,26.69
2022-08-11T08:04:49.640Z,26.92
2022-08-11T08:05:48.619Z,27.23
2022-08-11T08:06:48.604Z,27.73
2022-08-11T08:07:48.593Z,28.31
2022-08-11T08:08:48.591Z,29.03
2022-08-11T08:09:48.586Z,29.68
2022-08-11T08:10:48.566Z,30.24
2022-08-11T08:11:48.561Z,30.75
2022-08-11T08:12:48.551Z,31.24
2022-08-11T08:13:48.539Z,31.82
2022-08-11T08:14:48.564Z,32.40
2022-08-11T08:15:48.518Z,32.77
2022-08-11T08:16:48.516Z,33.04
2022-08-11T08:18:09.915Z,33.22
2022-08-11T08:18:49.499Z,33.41
2022-08-11T08:19:48.502Z,33.48
2022-08-11T08:20:48.476Z,33.48
2022-08-11T08:21:48.464Z,33.51
2022-08-11T08:22:48.834Z,33.29
2022-08-11T08:23:53.796Z,33.14
2022-08-11T08:24:49.455Z,32.96
2022-08-11T08:25:48.432Z,32.79
2022-08-11T08:26:51.871Z,32.55
2022-08-11T08:27:48.415Z,32.42
2022-08-11T08:28:48.406Z,32.29
2022-08-11T08:29:48.407Z,32.36
2022-08-11T08:30:48.384Z,32.33
2022-08-11T08:31:48.365Z,32.35
2022-08-11T08:32:48.371Z,32.35
2022-08-11T08:33:48.357Z,32.21
2022-08-11T08:34:48.370Z,32.35
2022-08-11T08:35:54.084Z,32.25
2022-08-11T08:36:49.345Z,32.25
2022-08-11T08:37:48.328Z,32.13
2022-08-11T08:38:48.370Z,32.18
2022-08-11T08:39:48.367Z,32.17
2022-08-11T08:40:48.441Z,32.40
2022-08-11T08:41:48.287Z,32.70
2022-08-11T08:42:48.518Z,32.98
2022-08-11T08:43:49.300Z,33.61
2022-08-11T08:44:48.251Z,33.92
2022-08-11T08:45:48.477Z,34.50
2022-08-11T08:46:48.241Z,34.99
2022-08-11T08:47:52.551Z,35.23
2022-08-11T08:48:48.225Z,35.69
2022-08-11T08:49:48.211Z,36.21
2022-08-11T08:50:48.222Z,36.54
2022-08-11T08:52:01.493Z,36.82
2022-08-11T08:52:49.582Z,37.23
2022-08-11T08:53:52.375Z,37.48
2022-08-11T08:54:49.213Z,37.77
2022-08-11T08:55:48.166Z,37.98
2022-08-11T08:56:48.153Z,38.30
2022-08-11T08:57:48.149Z,38.66
2022-08-11T08:58:48.136Z,38.89
2022-08-11T08:59:49.515Z,39.46
2022-08-11T09:00:48.135Z,39.74
2022-08-11T09:01:48.175Z,40.08
2022-08-11T09:02:48.326Z,40.38
2022-08-11T09:04:06.844Z,40.62
2022-08-11T09:04:49.109Z,40.83
2022-08-11T09:05:48.086Z,40.75
2022-08-11T09:06:51.621Z,40.65
2022-08-11T09:07:48.062Z,40.59
2022-08-11T09:08:49.650Z,40.93
2022-08-11T09:09:48.040Z,41.05
2022-08-11T09:10:48.053Z,41.50
2022-08-11T09:11:48.025Z,41.75
2022-08-11T09:12:48.291Z,41.54
2022-08-11T09:14:05.892Z,41.71
2022-08-11T09:14:49.115Z,42.01
2022-08-11T09:15:48.006Z,42.27
2022-08-11T09:16:47.991Z,42.22
2022-08-11T09:17:47.974Z,42.12
2022-08-11T09:18:47.974Z,42.10
2022-08-11T09:19:56.560Z,42.12
2022-08-11T09:20:48.971Z,41.83
2022-08-11T09:21:49.429Z,40.79
2022-08-11T09:22:47.938Z,40.30
2022-08-11T09:24:07.407Z,40.10
2022-08-11T09:24:48.921Z,40.15
2022-08-11T09:25:47.923Z,40.56
2022-08-11T09:26:47.909Z,40.86
2022-08-11T09:27:50.204Z,41.28
2022-08-11T09:28:47.947Z,41.54
2022-08-11T09:29:47.884Z,41.06
2022-08-11T09:30:47.888Z,40.80
2022-08-11T09:31:47.862Z,40.87
2022-08-11T09:32:47.859Z,41.28
2022-08-11T09:33:47.849Z,41.61
2022-08-11T09:34:47.847Z,42.13
2022-08-11T09:35:47.851Z,42.39
2022-08-11T09:36:47.826Z,42.81
2022-08-11T09:37:55.692Z,43.00
2022-08-11T09:38:49.713Z,42.76
2022-08-11T09:39:47.831Z,41.75
2022-08-11T09:40:52.824Z,41.65
2022-08-11T09:42:01.880Z,42.09
2022-08-11T09:42:48.777Z,42.41
2022-08-11T09:43:47.762Z,42.73
2022-08-11T09:44:48.575Z,42.60
2022-08-11T09:45:47.764Z,42.83
2022-08-11T09:46:47.742Z,43.06
2022-08-11T09:47:47.750Z,43.46
2022-08-11T09:48:47.724Z,43.83
2022-08-11T09:49:47.727Z,44.11
2022-08-11T09:50:47.734Z,44.28
2022-08-11T09:52:01.966Z,44.35
2022-08-11T09:53:16.866Z,44.28
2022-08-11T09:54:03.718Z,44.47
2022-08-11T09:54:48.801Z,44.23
2022-08-11T09:55:47.689Z,44.04
2022-08-11T09:56:47.666Z,43.61
2022-08-11T09:57:47.675Z,43.79
2022-08-11T09:58:47.647Z,44.13
2022-08-11T09:59:47.648Z,44.48
2022-08-11T10:00:47.713Z,44.81
2022-08-11T10:01:47.674Z,44.99
2022-08-11T10:02:47.619Z,45.19
2022-08-11T10:03:47.607Z,45.15
2022-08-11T10:04:47.603Z,45.64
2022-08-11T10:05:47.605Z,46.13
2022-08-11T10:06:47.588Z,46.16
2022-08-11T10:07:47.590Z,46.35
2022-08-11T10:08:47.575Z,46.39
2022-08-11T10:09:47.567Z,46.48
2022-08-11T10:10:47.573Z,46.78
2022-08-11T10:11:57.792Z,46.90
2022-08-11T10:12:48.545Z,46.56
2022-08-11T10:14:33.462Z,46.08
2022-08-11T10:14:48.530Z,46.11
2022-08-11T10:15:59.585Z,46.23
2022-08-11T10:16:48.520Z,46.02
2022-08-11T10:17:47.516Z,45.99
2022-08-11T10:18:47.503Z,44.62
2022-08-11T10:20:04.230Z,42.79
2022-08-11T10:20:48.502Z,43.19
2022-08-11T10:21:47.485Z,43.92
2022-08-11T10:22:47.476Z,44.59
2022-08-11T10:24:01.034Z,45.06
2022-08-11T10:24:48.463Z,45.09
2022-08-11T10:25:47.469Z,45.34
2022-08-11T10:26:47.455Z,46.19
2022-08-11T10:28:30.558Z,46.63
2022-08-11T10:29:09.903Z,46.94
2022-08-11T10:29:49.759Z,47.36
2022-08-11T10:30:47.441Z,47.59
2022-08-11T10:31:57.530Z,46.97
2022-08-11T10:32:58.681Z,46.54
2022-08-11T10:33:59.261Z,46.26
2022-08-11T10:34:51.173Z,46.25
2022-08-11T10:35:47.396Z,46.45
2022-08-11T10:36:47.398Z,46.26
2022-08-11T10:38:08.654Z,46.27
2022-08-11T10:38:48.371Z,45.50
2022-08-11T10:39:47.411Z,45.46
2022-08-11T10:40:47.354Z,45.54
2022-08-11T10:42:06.567Z,45.66
2022-08-11T10:42:57.794Z,45.88
2022-08-11T10:44:02.876Z,45.77
2022-08-11T10:44:48.322Z,44.99
2022-08-11T10:45:47.321Z,45.05
2022-08-11T10:46:47.322Z,45.83
2022-08-11T10:47:49.680Z,46.37
2022-08-11T10:48:47.305Z,46.82
2022-08-11T10:49:47.291Z,47.28
2022-08-11T10:50:47.281Z,47.64
2022-08-11T10:51:50.973Z,47.89
2022-08-11T10:52:47.269Z,48.05
2022-08-11T10:53:47.261Z,47.26
2022-08-11T10:54:47.260Z,46.56
2022-08-11T10:55:47.299Z,46.20
2022-08-11T10:56:47.255Z,46.23
2022-08-11T10:58:04.279Z,45.54
2022-08-11T10:58:48.231Z,45.28
2022-08-11T10:59:47.218Z,45.45
2022-08-11T11:00:47.245Z,45.90
2022-08-11T11:01:47.220Z,46.07
2022-08-11T11:03:07.108Z,46.22
2022-08-11T11:03:48.197Z,46.42
2022-08-11T11:04:50.775Z,46.35
2022-08-11T11:06:27.502Z,46.26
2022-08-11T11:06:48.178Z,46.45
2022-08-11T11:07:47.168Z,46.27
2022-08-11T11:09:47.153Z,46.19
2022-08-11T11:10:47.141Z,46.10
2022-08-11T11:11:47.157Z,46.25
2022-08-11T11:12:47.124Z,46.64
2022-08-11T11:13:53.383Z,46.34
2022-08-11T11:14:50.801Z,46.35
2022-08-11T11:15:47.163Z,46.68
2022-08-11T11:16:47.112Z,46.83
2022-08-11T11:17:47.088Z,47.13
2022-08-11T11:18:47.076Z,47.29
2022-08-11T11:19:48.074Z,46.97
2022-08-11T11:20:47.688Z,46.91
2022-08-11T11:21:47.076Z,46.85
2022-08-11T11:22:47.052Z,46.75
2022-08-11T11:23:47.046Z,46.56
2022-08-11T11:24:47.040Z,46.34
2022-08-11T11:25:47.034Z,45.91
2022-08-11T11:26:47.039Z,45.02
2022-08-11T11:27:47.024Z,45.00
2022-08-11T11:28:47.084Z,45.23
2022-08-11T11:29:47.008Z,45.52
2022-08-11T11:30:47.034Z,45.52
2022-08-11T11:31:47.007Z,45.58
2022-08-11T11:32:49.668Z,45.39
2022-08-11T11:34:06.166Z,45.43
2022-08-11T11:34:53.476Z,45.53
2022-08-11T11:35:48.014Z,45.77
2022-08-11T11:36:46.983Z,46.08
2022-08-11T11:38:03.488Z,46.61
2022-08-11T11:38:47.937Z,46.87
2022-08-11T11:39:46.994Z,47.01
2022-08-11T11:40:46.927Z,47.36
2022-08-11T11:41:46.935Z,47.49
2022-08-11T11:42:46.914Z,47.59
2022-08-11T11:43:46.908Z,47.17
2022-08-11T11:44:46.914Z,47.53
2022-08-11T11:45:46.899Z,47.70
2022-08-11T11:46:46.916Z,47.90
2022-08-11T11:47:46.887Z,48.01
2022-08-11T11:48:46.878Z,47.90
2022-08-11T11:49:46.876Z,48.06
2022-08-11T11:50:46.864Z,47.79
2022-08-11T11:51:50.005Z,47.84
2022-08-11T11:52:46.868Z,47.32
2022-08-11T11:53:46.853Z,47.37
2022-08-11T11:54:46.841Z,47.70
2022-08-11T11:55:46.865Z,47.74
2022-08-11T11:56:46.830Z,48.08
2022-08-11T11:57:59.101Z,48.25
2022-08-11T11:58:47.819Z,48.41
2022-08-11T11:59:46.820Z,48.34
2022-08-11T12:00:46.808Z,47.79
2022-08-11T12:01:50.393Z,47.18
2022-08-11T12:02:47.816Z,47.11
2022-08-11T12:03:46.796Z,47.35
2022-08-11T12:04:46.786Z,47.56
2022-08-11T12:05:46.778Z,48.01
2022-08-11T12:06:46.773Z,48.44
2022-08-11T12:07:46.792Z,48.61
2022-08-11T12:08:47.780Z,48.77
2022-08-11T12:09:46.765Z,49.04
2022-08-11T12:10:46.755Z,48.41
2022-08-11T12:11:46.753Z,48.50
2022-08-11T12:12:46.757Z,48.49
2022-08-11T12:13:46.744Z,48.55
2022-08-11T12:14:46.735Z,49.01
2022-08-11T12:16:32.017Z,48.63
2022-08-11T12:16:47.728Z,48.65
2022-08-11T12:17:51.047Z,48.08
2022-08-11T12:18:47.707Z,47.99
2022-08-11T12:19:48.586Z,48.24
2022-08-11T12:20:46.710Z,48.29
2022-08-11T12:21:50.946Z,48.36
2022-08-11T12:22:47.699Z,48.44
2022-08-11T12:23:46.697Z,48.21
2022-08-11T12:24:46.668Z,48.33
2022-08-11T12:25:46.675Z,48.21
2022-08-11T12:26:46.663Z,47.72
2022-08-11T12:27:47.675Z,47.86
2022-08-11T12:28:46.658Z,47.99
2022-08-11T12:29:50.055Z,47.65
2022-08-11T12:30:50.714Z,47.23
2022-08-11T12:31:47.644Z,47.62
2022-08-11T12:32:46.647Z,47.87
2022-08-11T12:33:46.645Z,48.06
2022-08-11T12:34:46.624Z,48.02
2022-08-11T12:36:01.236Z,48.28
2022-08-11T12:36:47.614Z,48.58
2022-08-11T12:37:46.702Z,48.87
2022-08-11T12:38:46.601Z,49.17
2022-08-11T12:40:16.599Z,49.47
2022-08-11T12:41:15.203Z,49.71
2022-08-11T12:41:47.723Z,50.02
2022-08-11T12:42:46.599Z,50.26
2022-08-11T12:43:57.050Z,49.71
2022-08-11T12:44:47.575Z,49.96
2022-08-11T12:45:46.565Z,49.95
2022-08-11T12:46:46.558Z,49.93
2022-08-11T12:48:58.936Z,49.71
2022-08-11T12:48:59.793Z,49.91
2022-08-11T12:49:47.545Z,49.33
2022-08-11T12:50:46.537Z,48.77
2022-08-11T12:52:01.510Z,48.34
2022-08-11T12:52:47.551Z,48.95
2022-08-11T12:53:46.522Z,49.09